sensor_id;sensor_type;location;lat;lon;timestamp;temperature;humidity
67529;DHT22;54366;51.980;5.856;2023-03-01T00:01:30;1.90;57.20
67529;DHT22;54366;51.980;5.856;2023-03-01T00:04:03;1.90;57.20
67529;DHT22;54366;51.980;5.856;2023-03-01T00:06:36;1.90;57.50
67529;DHT22;54366;51.980;5.856;2023-03-01T00:09:03;1.90;58.00
67529;DHT22;54366;51.980;5.856;2023-03-01T00:11:36;1.90;57.90
67529;DHT22;54366;51.980;5.856;2023-03-01T00:14:09;1.90;57.80
67529;DHT22;54366;51.980;5.856;2023-03-01T00:16:43;1.80;57.40
67529;DHT22;54366;51.980;5.856;2023-03-01T00:19:18;1.80;57.70
67529;DHT22;54366;51.980;5.856;2023-03-01T00:21:51;1.80;57.80
67529;DHT22;54366;51.980;5.856;2023-03-01T00:24:24;1.80;57.70
67529;DHT22;54366;51.980;5.856;2023-03-01T00:26:53;1.80;57.80
67529;DHT22;54366;51.980;5.856;2023-03-01T00:29:27;1.80;58.00
67529;DHT22;54366;51.980;5.856;2023-03-01T00:32:00;1.80;57.80
67529;DHT22;54366;51.980;5.856;2023-03-01T00:34:33;1.80;57.70
67529;DHT22;54366;51.980;5.856;2023-03-01T00:37:06;1.90;57.60
67529;DHT22;54366;51.980;5.856;2023-03-01T00:39:39;1.80;57.50
67529;DHT22;54366;51.980;5.856;2023-03-01T00:42:12;1.80;57.50
67529;DHT22;54366;51.980;5.856;2023-03-01T00:44:51;1.80;57.60
67529;DHT22;54366;51.980;5.856;2023-03-01T00:47:24;1.80;57.60
67529;DHT22;54366;51.980;5.856;2023-03-01T00:49:57;1.80;57.70
67529;DHT22;54366;51.980;5.856;2023-03-01T00:52:30;1.80;57.50
67529;DHT22;54366;51.980;5.856;2023-03-01T00:55:04;1.80;57.50
67529;DHT22;54366;51.980;5.856;2023-03-01T00:57:37;1.80;57.90
67529;DHT22;54366;51.980;5.856;2023-03-01T01:00:11;1.70;57.90
67529;DHT22;54366;51.980;5.856;2023-03-01T01:02:37;1.70;58.00
67529;DHT22;54366;51.980;5.856;2023-03-01T01:05:11;1.70;58.00
67529;DHT22;54366;51.980;5.856;2023-03-01T01:07:37;1.70;57.80
67529;DHT22;54366;51.980;5.856;2023-03-01T01:10:10;1.60;58.20
67529;DHT22;54366;51.980;5.856;2023-03-01T01:12:49;1.60;58.30
67529;DHT22;54366;51.980;5.856;2023-03-01T01:15:23;1.60;58.10
67529;DHT22;54366;51.980;5.856;2023-03-01T01:17:55;1.60;58.10
67529;DHT22;54366;51.980;5.856;2023-03-01T01:20:28;1.60;58.60
67529;DHT22;54366;51.980;5.856;2023-03-01T01:23:01;1.60;58.30
67529;DHT22;54366;51.980;5.856;2023-03-01T01:25:35;1.50;58.40
67529;DHT22;54366;51.980;5.856;2023-03-01T01:28:02;1.50;58.50
67529;DHT22;54366;51.980;5.856;2023-03-01T01:30:35;1.50;58.50
67529;DHT22;54366;51.980;5.856;2023-03-01T01:33:08;1.50;59.00
67529;DHT22;54366;51.980;5.856;2023-03-01T01:35:41;1.50;58.80
67529;DHT22;54366;51.980;5.856;2023-03-01T01:38:14;1.50;59.70
67529;DHT22;54366;51.980;5.856;2023-03-01T01:40:48;1.40;58.90
67529;DHT22;54366;51.980;5.856;2023-03-01T01:43:43;1.50;59.10
67529;DHT22;54366;51.980;5.856;2023-03-01T01:46:32;1.40;59.30
67529;DHT22;54366;51.980;5.856;2023-03-01T01:49:43;1.40;59.30
67529;DHT22;54366;51.980;5.856;2023-03-01T01:52:25;1.40;59.40
67529;DHT22;54366;51.980;5.856;2023-03-01T01:55:08;1.40;59.60
67529;DHT22;54366;51.980;5.856;2023-03-01T01:57:45;1.40;59.90
67529;DHT22;54366;51.980;5.856;2023-03-01T02:00:25;1.40;60.10
67529;DHT22;54366;51.980;5.856;2023-03-01T02:03:02;1.40;60.70
67529;DHT22;54366;51.980;5.856;2023-03-01T02:08:31;1.40;59.80
67529;DHT22;54366;51.980;5.856;2023-03-01T02:11:05;1.40;59.50
67529;DHT22;54366;51.980;5.856;2023-03-01T02:13:38;1.40;59.40
67529;DHT22;54366;51.980;5.856;2023-03-01T02:16:13;1.40;59.60
67529;DHT22;54366;51.980;5.856;2023-03-01T02:18:46;1.40;59.60
67529;DHT22;54366;51.980;5.856;2023-03-01T02:21:52;1.40;59.90
67529;DHT22;54366;51.980;5.856;2023-03-01T02:24:52;1.30;59.70
67529;DHT22;54366;51.980;5.856;2023-03-01T02:27:36;1.40;59.70
67529;DHT22;54366;51.980;5.856;2023-03-01T02:30:11;1.40;59.70
67529;DHT22;54366;51.980;5.856;2023-03-01T02:32:48;1.30;59.70
67529;DHT22;54366;51.980;5.856;2023-03-01T02:35:23;1.40;59.80
67529;DHT22;54366;51.980;5.856;2023-03-01T02:37:56;1.40;59.80
67529;DHT22;54366;51.980;5.856;2023-03-01T02:40:34;1.30;60.00
67529;DHT22;54366;51.980;5.856;2023-03-01T02:43:16;1.30;60.10
67529;DHT22;54366;51.980;5.856;2023-03-01T02:45:51;1.40;60.20
67529;DHT22;54366;51.980;5.856;2023-03-01T02:48:40;1.40;59.90
67529;DHT22;54366;51.980;5.856;2023-03-01T02:54:46;1.30;60.40
67529;DHT22;54366;51.980;5.856;2023-03-01T02:57:23;1.30;60.20
67529;DHT22;54366;51.980;5.856;2023-03-01T02:59:59;1.40;60.30
67529;DHT22;54366;51.980;5.856;2023-03-01T03:02:40;1.40;60.60
67529;DHT22;54366;51.980;5.856;2023-03-01T03:05:20;1.40;60.30
67529;DHT22;54366;51.980;5.856;2023-03-01T03:07:57;1.40;60.20
67529;DHT22;54366;51.980;5.856;2023-03-01T03:10:37;1.40;60.00
67529;DHT22;54366;51.980;5.856;2023-03-01T03:13:14;1.40;59.90
67529;DHT22;54366;51.980;5.856;2023-03-01T03:15:47;1.40;59.90
67529;DHT22;54366;51.980;5.856;2023-03-01T03:18:20;1.40;60.00
67529;DHT22;54366;51.980;5.856;2023-03-01T03:20:53;1.40;59.80
67529;DHT22;54366;51.980;5.856;2023-03-01T03:23:26;1.40;60.00
67529;DHT22;54366;51.980;5.856;2023-03-01T03:25:59;1.30;60.00
67529;DHT22;54366;51.980;5.856;2023-03-01T03:28:34;1.40;60.20
67529;DHT22;54366;51.980;5.856;2023-03-01T03:31:07;1.40;60.30
67529;DHT22;54366;51.980;5.856;2023-03-01T03:33:40;1.30;60.50
67529;DHT22;54366;51.980;5.856;2023-03-01T03:36:18;1.30;60.60
67529;DHT22;54366;51.980;5.856;2023-03-01T03:38:50;1.20;60.50
67529;DHT22;54366;51.980;5.856;2023-03-01T03:41:23;1.20;60.30
67529;DHT22;54366;51.980;5.856;2023-03-01T03:44:02;1.20;60.40
67529;DHT22;54366;51.980;5.856;2023-03-01T03:46:42;1.20;60.60
67529;DHT22;54366;51.980;5.856;2023-03-01T03:49:15;1.30;60.90
67529;DHT22;54366;51.980;5.856;2023-03-01T03:51:48;1.10;60.70
67529;DHT22;54366;51.980;5.856;2023-03-01T03:54:21;1.20;60.80
67529;DHT22;54366;51.980;5.856;2023-03-01T03:56:54;1.20;60.70
67529;DHT22;54366;51.980;5.856;2023-03-01T03:59:27;1.20;60.70
67529;DHT22;54366;51.980;5.856;2023-03-01T04:02:00;1.20;60.70
67529;DHT22;54366;51.980;5.856;2023-03-01T04:04:33;1.20;60.70
67529;DHT22;54366;51.980;5.856;2023-03-01T04:07:06;1.20;60.80
67529;DHT22;54366;51.980;5.856;2023-03-01T04:09:39;1.20;60.70
67529;DHT22;54366;51.980;5.856;2023-03-01T04:12:12;1.20;60.80
67529;DHT22;54366;51.980;5.856;2023-03-01T04:14:45;1.10;60.60
67529;DHT22;54366;51.980;5.856;2023-03-01T04:17:18;1.20;60.60
67529;DHT22;54366;51.980;5.856;2023-03-01T04:19:51;1.10;60.50
67529;DHT22;54366;51.980;5.856;2023-03-01T04:22:24;1.20;60.80
67529;DHT22;54366;51.980;5.856;2023-03-01T04:25:02;1.20;60.80
67529;DHT22;54366;51.980;5.856;2023-03-01T04:27:38;1.20;60.80
67529;DHT22;54366;51.980;5.856;2023-03-01T04:30:11;1.20;60.80
67529;DHT22;54366;51.980;5.856;2023-03-01T04:32:44;1.10;60.80
67529;DHT22;54366;51.980;5.856;2023-03-01T04:35:17;1.20;60.70
67529;DHT22;54366;51.980;5.856;2023-03-01T04:37:50;1.20;60.80
67529;DHT22;54366;51.980;5.856;2023-03-01T04:40:16;1.10;61.10
67529;DHT22;54366;51.980;5.856;2023-03-01T04:42:49;1.20;61.00
67529;DHT22;54366;51.980;5.856;2023-03-01T04:45:28;1.20;61.10
67529;DHT22;54366;51.980;5.856;2023-03-01T04:48:01;1.20;61.10
67529;DHT22;54366;51.980;5.856;2023-03-01T04:50:35;1.20;61.20
67529;DHT22;54366;51.980;5.856;2023-03-01T04:53:07;1.10;61.00
67529;DHT22;54366;51.980;5.856;2023-03-01T04:55:40;1.20;61.30
67529;DHT22;54366;51.980;5.856;2023-03-01T04:58:13;1.10;61.10
67529;DHT22;54366;51.980;5.856;2023-03-01T05:00:46;1.10;60.90
67529;DHT22;54366;51.980;5.856;2023-03-01T05:03:20;1.10;61.10
67529;DHT22;54366;51.980;5.856;2023-03-01T05:05:52;1.20;61.00
67529;DHT22;54366;51.980;5.856;2023-03-01T05:08:25;1.10;61.10
67529;DHT22;54366;51.980;5.856;2023-03-01T05:10:59;1.10;61.30
67529;DHT22;54366;51.980;5.856;2023-03-01T05:13:32;1.10;61.30
67529;DHT22;54366;51.980;5.856;2023-03-01T05:16:07;1.10;61.50
67529;DHT22;54366;51.980;5.856;2023-03-01T05:18:43;1.10;61.50
67529;DHT22;54366;51.980;5.856;2023-03-01T05:21:16;1.10;61.40
67529;DHT22;54366;51.980;5.856;2023-03-01T05:23:49;1.00;61.20
67529;DHT22;54366;51.980;5.856;2023-03-01T05:26:22;1.00;61.10
67529;DHT22;54366;51.980;5.856;2023-03-01T05:28:59;1.00;61.30
67529;DHT22;54366;51.980;5.856;2023-03-01T05:31:32;1.00;61.20
67529;DHT22;54366;51.980;5.856;2023-03-01T05:34:05;1.00;61.20
67529;DHT22;54366;51.980;5.856;2023-03-01T05:36:38;1.10;61.30
67529;DHT22;54366;51.980;5.856;2023-03-01T05:39:11;1.00;61.30
67529;DHT22;54366;51.980;5.856;2023-03-01T05:41:44;1.00;61.80
67529;DHT22;54366;51.980;5.856;2023-03-01T05:44:17;1.00;61.80
67529;DHT22;54366;51.980;5.856;2023-03-01T05:47:03;1.00;62.20
67529;DHT22;54366;51.980;5.856;2023-03-01T05:49:36;1.00;62.20
67529;DHT22;54366;51.980;5.856;2023-03-01T05:52:09;1.00;62.50
67529;DHT22;54366;51.980;5.856;2023-03-01T05:54:42;1.00;62.70
67529;DHT22;54366;51.980;5.856;2023-03-01T05:57:08;0.90;63.50
67529;DHT22;54366;51.980;5.856;2023-03-01T05:59:41;0.90;64.00
67529;DHT22;54366;51.980;5.856;2023-03-01T06:02:07;0.90;63.80
67529;DHT22;54366;51.980;5.856;2023-03-01T06:04:40;0.80;63.30
67529;DHT22;54366;51.980;5.856;2023-03-01T06:07:13;0.90;63.10
67529;DHT22;54366;51.980;5.856;2023-03-01T06:09:46;0.90;62.80
67529;DHT22;54366;51.980;5.856;2023-03-01T06:12:19;0.90;63.00
67529;DHT22;54366;51.980;5.856;2023-03-01T06:14:52;0.90;62.60
67529;DHT22;54366;51.980;5.856;2023-03-01T06:17:26;0.90;62.60
67529;DHT22;54366;51.980;5.856;2023-03-01T06:20:01;0.90;62.40
67529;DHT22;54366;51.980;5.856;2023-03-01T06:22:34;0.90;62.20
67529;DHT22;54366;51.980;5.856;2023-03-01T06:25:08;0.90;62.20
67529;DHT22;54366;51.980;5.856;2023-03-01T06:27:42;0.90;62.30
67529;DHT22;54366;51.980;5.856;2023-03-01T06:30:16;0.90;63.20
67529;DHT22;54366;51.980;5.856;2023-03-01T06:32:49;0.90;63.80
67529;DHT22;54366;51.980;5.856;2023-03-01T06:35:22;0.90;64.00
67529;DHT22;54366;51.980;5.856;2023-03-01T06:37:56;0.80;63.40
67529;DHT22;54366;51.980;5.856;2023-03-01T06:40:29;0.80;63.30
67529;DHT22;54366;51.980;5.856;2023-03-01T06:43:03;0.90;63.20
67529;DHT22;54366;51.980;5.856;2023-03-01T06:45:30;0.80;63.20
67529;DHT22;54366;51.980;5.856;2023-03-01T06:48:09;0.80;63.60
67529;DHT22;54366;51.980;5.856;2023-03-01T06:50:42;0.80;64.10
67529;DHT22;54366;51.980;5.856;2023-03-01T06:53:15;0.80;64.20
67529;DHT22;54366;51.980;5.856;2023-03-01T06:55:54;0.80;64.50
67529;DHT22;54366;51.980;5.856;2023-03-01T06:58:27;0.70;64.90
67529;DHT22;54366;51.980;5.856;2023-03-01T07:00:53;0.70;65.40
67529;DHT22;54366;51.980;5.856;2023-03-01T07:03:26;0.60;65.50
67529;DHT22;54366;51.980;5.856;2023-03-01T07:05:59;0.70;65.40
67529;DHT22;54366;51.980;5.856;2023-03-01T07:08:32;0.60;65.50
67529;DHT22;54366;51.980;5.856;2023-03-01T07:11:05;0.60;65.40
67529;DHT22;54366;51.980;5.856;2023-03-01T07:13:38;0.60;65.50
67529;DHT22;54366;51.980;5.856;2023-03-01T07:16:11;0.60;65.80
67529;DHT22;54366;51.980;5.856;2023-03-01T07:18:37;0.60;65.60
67529;DHT22;54366;51.980;5.856;2023-03-01T07:21:12;0.60;66.00
67529;DHT22;54366;51.980;5.856;2023-03-01T07:23:47;0.60;66.10
67529;DHT22;54366;51.980;5.856;2023-03-01T07:26:20;0.60;66.60
67529;DHT22;54366;51.980;5.856;2023-03-01T07:28:53;0.60;66.70
67529;DHT22;54366;51.980;5.856;2023-03-01T07:31:26;0.60;66.70
67529;DHT22;54366;51.980;5.856;2023-03-01T07:34:00;0.60;66.90
67529;DHT22;54366;51.980;5.856;2023-03-01T07:36:33;0.70;67.10
67529;DHT22;54366;51.980;5.856;2023-03-01T07:39:06;0.70;67.10
67529;DHT22;54366;51.980;5.856;2023-03-01T07:41:39;0.80;67.00
67529;DHT22;54366;51.980;5.856;2023-03-01T07:44:12;0.80;66.80
67529;DHT22;54366;51.980;5.856;2023-03-01T07:46:51;0.90;66.50
67529;DHT22;54366;51.980;5.856;2023-03-01T07:49:28;1.00;66.30
67529;DHT22;54366;51.980;5.856;2023-03-01T07:52:01;1.00;65.80
67529;DHT22;54366;51.980;5.856;2023-03-01T07:54:34;1.10;65.40
67529;DHT22;54366;51.980;5.856;2023-03-01T07:57:07;1.20;65.50
67529;DHT22;54366;51.980;5.856;2023-03-01T07:59:40;1.20;65.20
67529;DHT22;54366;51.980;5.856;2023-03-01T08:02:13;1.30;64.80
67529;DHT22;54366;51.980;5.856;2023-03-01T08:04:47;1.40;64.60
67529;DHT22;54366;51.980;5.856;2023-03-01T08:07:13;1.50;64.30
67529;DHT22;54366;51.980;5.856;2023-03-01T08:09:46;1.60;64.10
67529;DHT22;54366;51.980;5.856;2023-03-01T08:12:12;1.70;63.80
67529;DHT22;54366;51.980;5.856;2023-03-01T08:14:45;1.80;63.70
67529;DHT22;54366;51.980;5.856;2023-03-01T08:17:18;1.90;63.50
67529;DHT22;54366;51.980;5.856;2023-03-01T08:19:51;2.00;63.90
67529;DHT22;54366;51.980;5.856;2023-03-01T08:22:24;2.10;63.10
67529;DHT22;54366;51.980;5.856;2023-03-01T08:24:57;2.30;63.00
67529;DHT22;54366;51.980;5.856;2023-03-01T08:27:30;2.40;62.30
67529;DHT22;54366;51.980;5.856;2023-03-01T08:30:04;2.50;61.90
67529;DHT22;54366;51.980;5.856;2023-03-01T08:32:38;2.70;61.50
67529;DHT22;54366;51.980;5.856;2023-03-01T08:35:11;2.80;61.20
67529;DHT22;54366;51.980;5.856;2023-03-01T08:37:44;2.90;60.80
67529;DHT22;54366;51.980;5.856;2023-03-01T08:40:25;3.10;60.60
67529;DHT22;54366;51.980;5.856;2023-03-01T08:43:10;3.30;60.30
67529;DHT22;54366;51.980;5.856;2023-03-01T08:45:43;3.40;60.00
67529;DHT22;54366;51.980;5.856;2023-03-01T08:48:23;3.60;59.00
67529;DHT22;54366;51.980;5.856;2023-03-01T08:50:56;3.80;58.60
67529;DHT22;54366;51.980;5.856;2023-03-01T08:53:29;3.80;57.90
67529;DHT22;54366;51.980;5.856;2023-03-01T08:56:02;4.00;57.00
67529;DHT22;54366;51.980;5.856;2023-03-01T08:58:29;4.10;56.70
67529;DHT22;54366;51.980;5.856;2023-03-01T09:01:10;4.30;56.40
67529;DHT22;54366;51.980;5.856;2023-03-01T09:03:43;4.40;55.20
67529;DHT22;54366;51.980;5.856;2023-03-01T09:06:16;4.60;54.70
67529;DHT22;54366;51.980;5.856;2023-03-01T09:08:50;4.70;54.20
67529;DHT22;54366;51.980;5.856;2023-03-01T09:11:23;4.80;53.60
67529;DHT22;54366;51.980;5.856;2023-03-01T09:13:56;5.00;52.90
67529;DHT22;54366;51.980;5.856;2023-03-01T09:16:29;5.10;50.90
67529;DHT22;54366;51.980;5.856;2023-03-01T09:19:06;5.30;49.70
67529;DHT22;54366;51.980;5.856;2023-03-01T09:21:32;5.30;49.70
67529;DHT22;54366;51.980;5.856;2023-03-01T09:24:06;5.40;49.50
67529;DHT22;54366;51.980;5.856;2023-03-01T09:26:39;5.50;50.10
67529;DHT22;54366;51.980;5.856;2023-03-01T09:29:12;5.60;50.10
67529;DHT22;54366;51.980;5.856;2023-03-01T09:31:45;5.60;49.90
67529;DHT22;54366;51.980;5.856;2023-03-01T09:34:18;5.70;48.60
67529;DHT22;54366;51.980;5.856;2023-03-01T09:36:57;5.80;49.10
67529;DHT22;54366;51.980;5.856;2023-03-01T09:39:30;5.90;49.20
67529;DHT22;54366;51.980;5.856;2023-03-01T09:42:04;6.00;48.20
67529;DHT22;54366;51.980;5.856;2023-03-01T09:44:54;6.10;47.80
67529;DHT22;54366;51.980;5.856;2023-03-01T09:47:35;6.10;48.40
67529;DHT22;54366;51.980;5.856;2023-03-01T09:50:21;6.20;48.40
67529;DHT22;54366;51.980;5.856;2023-03-01T09:53:18;6.40;47.60
67529;DHT22;54366;51.980;5.856;2023-03-01T09:56:22;6.40;47.00
67529;DHT22;54366;51.980;5.856;2023-03-01T09:59:17;6.50;46.80
67529;DHT22;54366;51.980;5.856;2023-03-01T10:02:42;6.50;46.80
67529;DHT22;54366;51.980;5.856;2023-03-01T10:11:28;6.70;44.60
67529;DHT22;54366;51.980;5.856;2023-03-01T10:14:31;6.70;45.00
67529;DHT22;54366;51.980;5.856;2023-03-01T10:17:48;6.70;45.10
67529;DHT22;54366;51.980;5.856;2023-03-01T10:20:30;6.80;44.90
67529;DHT22;54366;51.980;5.856;2023-03-01T10:23:08;6.90;44.80
67529;DHT22;54366;51.980;5.856;2023-03-01T10:26:28;7.00;45.20
67529;DHT22;54366;51.980;5.856;2023-03-01T10:29:07;7.00;45.00
67529;DHT22;54366;51.980;5.856;2023-03-01T10:31:47;7.20;45.50
67529;DHT22;54366;51.980;5.856;2023-03-01T10:34:33;7.20;45.10
67529;DHT22;54366;51.980;5.856;2023-03-01T10:37:18;7.30;45.20
67529;DHT22;54366;51.980;5.856;2023-03-01T10:40:17;7.40;45.30
67529;DHT22;54366;51.980;5.856;2023-03-01T10:42:51;7.60;43.70
67529;DHT22;54366;51.980;5.856;2023-03-01T10:45:36;7.60;43.80
67529;DHT22;54366;51.980;5.856;2023-03-01T10:48:18;7.70;43.60
67529;DHT22;54366;51.980;5.856;2023-03-01T10:51:17;7.80;43.80
67529;DHT22;54366;51.980;5.856;2023-03-01T10:53:52;7.90;43.40
67529;DHT22;54366;51.980;5.856;2023-03-01T10:56:25;8.00;43.90
67529;DHT22;54366;51.980;5.856;2023-03-01T10:59:01;8.10;43.10
67529;DHT22;54366;51.980;5.856;2023-03-01T11:01:35;8.20;42.30
67529;DHT22;54366;51.980;5.856;2023-03-01T11:04:13;8.30;41.70
67529;DHT22;54366;51.980;5.856;2023-03-01T11:06:58;8.30;41.70
67529;DHT22;54366;51.980;5.856;2023-03-01T11:09:33;8.40;41.40
67529;DHT22;54366;51.980;5.856;2023-03-01T11:12:15;8.50;42.10
67529;DHT22;54366;51.980;5.856;2023-03-01T11:14:51;8.60;42.40
67529;DHT22;54366;51.980;5.856;2023-03-01T11:17:30;8.80;41.50
67529;DHT22;54366;51.980;5.856;2023-03-01T11:20:33;8.80;41.50
67529;DHT22;54366;51.980;5.856;2023-03-01T11:23:15;9.00;41.10
67529;DHT22;54366;51.980;5.856;2023-03-01T11:25:56;9.10;39.10
67529;DHT22;54366;51.980;5.856;2023-03-01T11:28:30;9.20;40.00
67529;DHT22;54366;51.980;5.856;2023-03-01T11:31:08;9.40;40.40
67529;DHT22;54366;51.980;5.856;2023-03-01T11:34:11;9.50;39.10
67529;DHT22;54366;51.980;5.856;2023-03-01T11:36:53;9.70;39.20
67529;DHT22;54366;51.980;5.856;2023-03-01T11:39:37;9.80;39.30
67529;DHT22;54366;51.980;5.856;2023-03-01T11:42:18;9.90;39.40
67529;DHT22;54366;51.980;5.856;2023-03-01T11:44:55;10.00;37.50
67529;DHT22;54366;51.980;5.856;2023-03-01T11:48:05;10.00;37.80
67529;DHT22;54366;51.980;5.856;2023-03-01T11:50:47;10.00;38.50
67529;DHT22;54366;51.980;5.856;2023-03-01T11:53:46;10.10;36.90
67529;DHT22;54366;51.980;5.856;2023-03-01T11:56:35;10.00;36.10
67529;DHT22;54366;51.980;5.856;2023-03-01T11:59:53;10.00;35.60
67529;DHT22;54366;51.980;5.856;2023-03-01T12:02:57;10.00;36.70
67529;DHT22;54366;51.980;5.856;2023-03-01T12:08:56;10.20;36.30
67529;DHT22;54366;51.980;5.856;2023-03-01T12:18:04;10.20;35.60
67529;DHT22;54366;51.980;5.856;2023-03-01T12:27:39;10.40;34.60
67529;DHT22;54366;51.980;5.856;2023-03-01T12:34:32;10.50;36.40
67529;DHT22;54366;51.980;5.856;2023-03-01T12:42:10;10.60;35.10
67529;DHT22;54366;51.980;5.856;2023-03-01T12:44:05;10.60;34.10
67529;DHT22;54366;51.980;5.856;2023-03-01T12:46:52;10.40;34.90
67529;DHT22;54366;51.980;5.856;2023-03-01T12:49:45;10.30;35.50
67529;DHT22;54366;51.980;5.856;2023-03-01T12:52:52;10.20;35.40
67529;DHT22;54366;51.980;5.856;2023-03-01T12:55:39;10.10;35.20
67529;DHT22;54366;51.980;5.856;2023-03-01T12:58:57;10.20;36.10
67529;DHT22;54366;51.980;5.856;2023-03-01T13:01:53;10.20;35.90
67529;DHT22;54366;51.980;5.856;2023-03-01T13:07:49;10.40;35.10
67529;DHT22;54366;51.980;5.856;2023-03-01T13:10:46;10.40;34.60
67529;DHT22;54366;51.980;5.856;2023-03-01T13:13:25;10.30;36.10
67529;DHT22;54366;51.980;5.856;2023-03-01T13:19:27;10.20;36.50
67529;DHT22;54366;51.980;5.856;2023-03-01T13:22:32;10.20;36.40
67529;DHT22;54366;51.980;5.856;2023-03-01T13:25:14;10.20;36.10
67529;DHT22;54366;51.980;5.856;2023-03-01T13:27:47;10.10;35.60
67529;DHT22;54366;51.980;5.856;2023-03-01T13:33:51;10.00;35.20
67529;DHT22;54366;51.980;5.856;2023-03-01T13:36:48;9.90;35.00
67529;DHT22;54366;51.980;5.856;2023-03-01T13:39:30;9.70;35.60
67529;DHT22;54366;51.980;5.856;2023-03-01T13:42:35;9.60;36.60
67529;DHT22;54366;51.980;5.856;2023-03-01T13:45:36;9.50;35.90
67529;DHT22;54366;51.980;5.856;2023-03-01T13:48:22;9.40;36.20
67529;DHT22;54366;51.980;5.856;2023-03-01T13:51:02;9.40;37.70
67529;DHT22;54366;51.980;5.856;2023-03-01T13:53:39;9.30;36.50
67529;DHT22;54366;51.980;5.856;2023-03-01T13:56:16;9.20;36.90
67529;DHT22;54366;51.980;5.856;2023-03-01T13:59:02;9.30;37.20
67529;DHT22;54366;51.980;5.856;2023-03-01T14:01:36;9.30;37.00
67529;DHT22;54366;51.980;5.856;2023-03-01T14:04:38;9.30;36.70
67529;DHT22;54366;51.980;5.856;2023-03-01T14:07:21;9.30;36.00
67529;DHT22;54366;51.980;5.856;2023-03-01T14:09:58;9.40;36.80
67529;DHT22;54366;51.980;5.856;2023-03-01T14:12:55;9.30;36.90
67529;DHT22;54366;51.980;5.856;2023-03-01T14:15:38;9.30;36.40
67529;DHT22;54366;51.980;5.856;2023-03-01T14:18:26;9.20;36.60
67529;DHT22;54366;51.980;5.856;2023-03-01T14:21:01;9.10;37.40
67529;DHT22;54366;51.980;5.856;2023-03-01T14:23:40;9.10;37.60
67529;DHT22;54366;51.980;5.856;2023-03-01T14:26:21;9.00;37.80
67529;DHT22;54366;51.980;5.856;2023-03-01T14:28:54;9.00;38.00
67529;DHT22;54366;51.980;5.856;2023-03-01T14:31:37;9.00;37.80
67529;DHT22;54366;51.980;5.856;2023-03-01T14:34:23;9.00;37.30
67529;DHT22;54366;51.980;5.856;2023-03-01T14:36:56;9.00;37.80
67529;DHT22;54366;51.980;5.856;2023-03-01T14:39:32;9.00;38.30
67529;DHT22;54366;51.980;5.856;2023-03-01T14:42:05;9.00;37.90
67529;DHT22;54366;51.980;5.856;2023-03-01T14:44:45;9.00;37.80
67529;DHT22;54366;51.980;5.856;2023-03-01T14:47:28;9.00;37.20
67529;DHT22;54366;51.980;5.856;2023-03-01T14:50:33;9.00;37.90
67529;DHT22;54366;51.980;5.856;2023-03-01T14:53:07;8.90;38.00
67529;DHT22;54366;51.980;5.856;2023-03-01T14:55:46;8.90;38.40
67529;DHT22;54366;51.980;5.856;2023-03-01T14:58:15;9.00;37.80
67529;DHT22;54366;51.980;5.856;2023-03-01T15:00:53;9.00;38.20
67529;DHT22;54366;51.980;5.856;2023-03-01T15:03:38;9.00;38.20
67529;DHT22;54366;51.980;5.856;2023-03-01T15:06:21;9.00;37.50
67529;DHT22;54366;51.980;5.856;2023-03-01T15:08:55;9.00;37.70
67529;DHT22;54366;51.980;5.856;2023-03-01T15:11:31;9.00;37.40
67529;DHT22;54366;51.980;5.856;2023-03-01T15:14:25;9.10;37.40
67529;DHT22;54366;51.980;5.856;2023-03-01T15:16:58;9.00;36.60
67529;DHT22;54366;51.980;5.856;2023-03-01T15:19:31;9.00;37.70
67529;DHT22;54366;51.980;5.856;2023-03-01T15:22:04;8.90;36.80
67529;DHT22;54366;51.980;5.856;2023-03-01T15:24:49;9.00;36.80
67529;DHT22;54366;51.980;5.856;2023-03-01T15:27:24;8.90;37.50
67529;DHT22;54366;51.980;5.856;2023-03-01T15:30:01;8.90;37.40
67529;DHT22;54366;51.980;5.856;2023-03-01T15:32:36;8.90;37.10
67529;DHT22;54366;51.980;5.856;2023-03-01T15:35:41;8.90;37.50
67529;DHT22;54366;51.980;5.856;2023-03-01T15:38:54;8.90;37.50
67529;DHT22;54366;51.980;5.856;2023-03-01T15:41:30;8.90;37.90
67529;DHT22;54366;51.980;5.856;2023-03-01T15:44:18;8.90;38.20
67529;DHT22;54366;51.980;5.856;2023-03-01T15:46:50;8.90;38.30
67529;DHT22;54366;51.980;5.856;2023-03-01T15:49:39;8.90;37.50
67529;DHT22;54366;51.980;5.856;2023-03-01T15:52:21;8.90;37.90
67529;DHT22;54366;51.980;5.856;2023-03-01T15:55:03;8.80;37.90
67529;DHT22;54366;51.980;5.856;2023-03-01T15:57:38;8.90;38.20
67529;DHT22;54366;51.980;5.856;2023-03-01T16:00:12;8.80;38.20
67529;DHT22;54366;51.980;5.856;2023-03-01T16:02:45;8.80;38.50
67529;DHT22;54366;51.980;5.856;2023-03-01T16:05:25;8.70;38.50
67529;DHT22;54366;51.980;5.856;2023-03-01T16:07:59;8.70;38.20
67529;DHT22;54366;51.980;5.856;2023-03-01T16:10:27;8.70;38.60
67529;DHT22;54366;51.980;5.856;2023-03-01T16:12:59;8.70;37.70
67529;DHT22;54366;51.980;5.856;2023-03-01T16:15:33;8.70;37.50
67529;DHT22;54366;51.980;5.856;2023-03-01T16:18:10;8.60;37.70
67529;DHT22;54366;51.980;5.856;2023-03-01T16:20:43;8.60;37.50
67529;DHT22;54366;51.980;5.856;2023-03-01T16:23:16;8.60;37.10
67529;DHT22;54366;51.980;5.856;2023-03-01T16:25:42;8.60;36.90
67529;DHT22;54366;51.980;5.856;2023-03-01T16:28:15;8.50;37.00
67529;DHT22;54366;51.980;5.856;2023-03-01T16:30:48;8.50;37.00
67529;DHT22;54366;51.980;5.856;2023-03-01T16:33:21;8.50;37.10
67529;DHT22;54366;51.980;5.856;2023-03-01T16:35:54;8.40;37.20
67529;DHT22;54366;51.980;5.856;2023-03-01T16:38:28;8.40;36.60
67529;DHT22;54366;51.980;5.856;2023-03-01T16:41:01;8.30;37.30
67529;DHT22;54366;51.980;5.856;2023-03-01T16:43:29;8.30;37.60
67529;DHT22;54366;51.980;5.856;2023-03-01T16:46:01;8.30;37.90
67529;DHT22;54366;51.980;5.856;2023-03-01T16:48:43;8.20;37.90
67529;DHT22;54366;51.980;5.856;2023-03-01T16:51:23;8.20;38.20
67529;DHT22;54366;51.980;5.856;2023-03-01T16:53:56;8.10;38.50
67529;DHT22;54366;51.980;5.856;2023-03-01T16:56:29;8.10;38.90
67529;DHT22;54366;51.980;5.856;2023-03-01T16:59:03;8.10;39.30
67529;DHT22;54366;51.980;5.856;2023-03-01T17:01:36;8.10;39.90
67529;DHT22;54366;51.980;5.856;2023-03-01T17:04:13;8.00;39.60
67529;DHT22;54366;51.980;5.856;2023-03-01T17:06:46;8.00;39.80
67529;DHT22;54366;51.980;5.856;2023-03-01T17:09:20;7.90;40.00
67529;DHT22;54366;51.980;5.856;2023-03-01T17:11:54;7.90;40.40
67529;DHT22;54366;51.980;5.856;2023-03-01T17:14:21;7.80;40.50
67529;DHT22;54366;51.980;5.856;2023-03-01T17:16:53;7.80;40.60
67529;DHT22;54366;51.980;5.856;2023-03-01T17:19:26;7.80;41.20
67529;DHT22;54366;51.980;5.856;2023-03-01T17:21:59;7.70;41.50
67529;DHT22;54366;51.980;5.856;2023-03-01T17:24:37;7.60;41.50
67529;DHT22;54366;51.980;5.856;2023-03-01T17:27:11;7.50;41.90
67529;DHT22;54366;51.980;5.856;2023-03-01T17:29:44;7.40;42.50
67529;DHT22;54366;51.980;5.856;2023-03-01T17:32:17;7.40;42.50
67529;DHT22;54366;51.980;5.856;2023-03-01T17:34:50;7.30;42.80
67529;DHT22;54366;51.980;5.856;2023-03-01T17:37:23;7.20;43.10
67529;DHT22;54366;51.980;5.856;2023-03-01T17:39:56;7.10;43.70